INDIA METEOROLOGICAL DEPARTMENT, R.M.C. NEW DELHI
Dated:26 - 7 - 2016
METARS


Agartala   
VEAT 261000Z 22007KT 6000 FEW020 SCT025 31/25 Q1006 NOSIG =
Ahmedabad  
VAAH 261000Z 33004KT 6000 FEW020 SCT080 33/25 Q1002 NOSIG=
Allahabad  
VEAB 260930Z 04008KT 6000 SCT030 BKN090 32/28 Q1003 NOSIG=
Amritsar   
VIAR 261000Z VRB02KT 4500 HZ FEW040 SCT100 36/26 Q1001 NOSIG=
Aurangabad 
VAAU 260900Z 29003KT 6000 SCT020 SCT025 BKN100 29/23 Q1006=
Bangalore  
VOBL 261000Z 29007KT 220V330 8000 SCT012 SCT020 28/21 Q1009 NOSIG=
Baroda     
VABO 261000Z 24008KT 6000 FEW020 BKN080 32/26 Q1002=
Bhopal     
VABP 260900Z 18004KT 3000 HZ FEW010 SCT020 FEW030CB BKN100 31/26 Q1005 TEMPO 2500 -TSRA=
Bhubaneswar
VEBS 261000Z 20005KT 3000 -RA BKN016 FEW030CB OVC080 26/25 Q1006 NOSIG =
Chennai    
VOMM 261000Z 14009KT 7000 FEW020 SCT100 31/26 Q1003 NOSIG=
Coimbatore 
VOCB 261000Z 17010KT 8000 FEW015 31/23 Q1007 NOSIG=
Colombo    
VCBI 260940Z 23009KT 200V260 9999 FEW017 29/23 Q1006 NOSIG=
Delhi      
VIDP 261000Z 07008G18KT 2800 BR SCT030 FEW035CB BKN100 30/27 Q1003 TEMPO TS=
Dehradun   
VIDN 260930Z 24005KT 3000 BR FEW010 SCT025 OVC070 29/26 Q1005 =
Gauhati    
VEGT 261000Z 26004KT 5000 BR FEW010 SCT018 FEW025CB BKN100 31/27 Q1007 NOSIG=
Gaya       
VEGY 261000Z 04005KT 3500 -TSRA FEW010 SCT016 FEW030CB BKN080 32/27 Q1002 NOSING =
Gaggal     
VIGG 260930Z 14003KT 5000 BR FEW015 SCT030 BKN080 30/25 Q1007=
Goa        
VOGO 261000Z 26008KT 6000 FEW008 SCT012 FEW020TCU BKN080 30/24 Q1005 NOSIG =
Fursatganj
VERB 261000Z 09004KT 4000 HZ SCT015 FEW030CB OVC090 31/27 Q1001=
Hyderabad  
VOHS 261000Z 25010KT 6000 FEW015 SCT025 FEW030CB BKN100 33/23 Q1006 NOSIG=
Imphal     
VEIM 261000Z 34009KT 8000 SCT018 BKN100 29/22 Q1009 NOSIG=
Indore     
VAID 261000Z 30005KT 5000 HZ FEW020 SCT025 FEWCB030 BKN100 30/25 Q1005 TEMPO 3000 -TSRA/-RA=
Jabalpur   
VAJB 261000Z 27003KT 6000 SCT020 SCT030 BKN200 30/23 Q1004=
Jaipur     
VIJP 261000Z 08008KT 6000 SCT030 FEW035CB BKN090 34/24 Q1003 TEMPO 1500 TSRA=
Khajuraho  
VEKO 260900Z 16003KT 6000 SCT025 BKN100 34/25 Q1002=
Kochi      
VOCI 261000Z NIL=
Kolkata    
VECC 261000Z 14011KT 3500 HZ SCT015 BKN090 28/26 Q1006 NOSIG=
Kozhikode  
VOCL 261000Z 26008KT 8000 SCT015 FEW020TCU BKN090 29/25 Q1005 NOSIG=
Lucknow    
VILK 261000Z 08008KT 3500 HZ FEW012 SCT020 FEW039CB OVC090 31/28 Q1002 NOSIG=
Ludhiana
VILD 261000Z 36002KT 1700 TSRA FEW CB 025 SCT030 OVC080 30/26 Q1002=
Madurai    
VOMD 261000Z 00000KT 6000 FEW020 SCT100 33/22 Q1005 NOSIG=
Mohanbari  
VEMN 260930Z 32006KT 5000 HZ FEW020 FEW025CB BKN100 29/25 Q1007 NOSIG=
Mumbai     
VABB 261000Z 32006KT 2500 HZ SCT018 FEW025TCU OVC080 27/25 Q1005 TEMPO 1500 SHRA=
Nagpur     
VANP 260930Z 21003KT 5000 HZ FEW018 SCT030 FEW030CB 32/25 Q1004 NOSIG=
Patna      
VEPT 261000Z 07010KT 5000 HZ FEW018 SCT025 FEW030CB 33/26 Q1003 NOSIG=
Raipur     
VERP 261000Z 24006KT 6000 SCT018 FEW TCU025 BKN090 30/25 Q1005 NOSIG=
Safdarjung
VIDD 261000Z 05004KT 2000 RA SCT025 FEW030CB OVC080 29/28 Q1003 TEMPO TSRA=
Ranchi     
VERC 260830Z 06002KT 3000 -TSRA SCT010 SCT015 FEW030CB 28/25 Q1008 TEMPO 1500 TSRA NOSIG=
Trichy     
VOTR 261000Z VRB02KT 8000 SCT016 33/23 Q1004 NOSIG=
Trivandrum 
VOTV 261000Z 29008KT 5000 HZ SCT015 FEW025CB BKN090 27/25 Q1005 NOSIG=
Udaipur    
VAUD 261000Z 04005KT 5000 HZ SCT012 BKN025 FEW030CB 32/25 Q1005 NOSIG=
Varanasi   
VEBN 261000Z 08009KT 5000 HZ SCT020 FEW030CB BKN100 34/27 Q1002=
Vizag      
VOVZ 260900Z 00000KT 4500 DZ FEW010 SCT016 FEW025CB OVC080 26/25 Q1005 TEMPO 3500 -RA/DZ =
Male       
VRMM 261000Z 24009KT 9999 FEW018 BKN260 30/25 Q1007 NOSIG=
Gan        
VRMG 261000Z 16005KT 9999 FEW018 BKN270 31/24 Q1008=
Kathmandu   
VNKT 260950Z 36004KT 7000 FEW010 FEW025CB SCT030 BKN100 25/21 Q1014 NOSIG CB TO E=
Dhaka      
VGHS 261000Z 18005KT 4000 HZ SCT012 BKN100 29/24 Q1006 NOSIG=
Colombo     
VCBI 260940Z 23009KT 200V260 9999 FEW017 29/23 Q1006 NOSIG=
Karachi     
OPKC 260955Z 21012KT 7000 SCT030 33/22 Q1002 NOSIG=
Lahore      
OPLA 260955Z 09005KT 6000 FEW040 37/26 Q1001 NOSIG=
Leh        
VILH 260930Z 18008KT 6000 FEW060 FEW070TCU SCT090 29/-01 Q1018 NOSIG RMK AC TCU-S&W-20KM=
Sri Nagar  
VISR 260930Z 17003KT 6000 SCT025 FEW030TCU SCT090 32/18 Q1012 NOSIG=
Jammu      
VIJU 260930Z VRB02KT 6000 SCT030 35/25 Q1001 NOSIG=
Agra       
VIAG 260930Z 32012KT 5000 TSRA FEW015 SCT020 FEW025CB BKN100 30/29 Q1001 TEMPO 3000=
Bagdogra   
VEBD 260930Z 05004KT 5000 RABR BKN012 SCT025 BKN090 29/27 Q1007 TEMPO 3000M=
Gwalior    
VIGR 260930Z 05012KT 6000 TS SCT025 FEW030CB BKN250 35/26 Q 1001 TEMPO TSRA=
Pune       
VAPO 260930Z 29011KT 6000 RA SCT020 SCT030 BKN100 25/25 Q1008 TEMPO 5000 RA=